Time;durP1;ratioP1;P1;durP2;ratioP2;P2;SDS_P1;SDS_P2;PMS_P1;PMS_P2;Temp;Humidity;BMP_temperature;BMP_pressure;BME280_temperature;BME280_humidity;BME280_pressure;Samples;Min_cycle;Max_cycle;Signal;HPM_P1;HPM_P2
2022/09/02 00:01:44;;;;;;;4.50;2.83;;;12.30;99.90;;;;;;5055059;28;20177;-68
2022/09/02 00:04:16;;;;;;;4.73;3.30;;;12.30;99.90;;;;;;5055533;28;20374;-68
2022/09/02 00:06:43;;;;;;;6.60;2.77;;;12.20;99.90;;;;;;5055523;28;20427;-68
2022/09/02 00:09:12;;;;;;;4.23;2.70;;;12.20;99.90;;;;;;5055581;28;20423;-68
2022/09/02 00:11:39;;;;;;;4.10;2.40;;;12.20;99.90;;;;;;5054887;28;21193;-68
2022/09/02 00:14:09;;;;;;;4.77;2.80;;;12.10;99.90;;;;;;5055399;28;20466;-68
2022/09/02 00:16:35;;;;;;;3.93;3.00;;;12.10;99.90;;;;;;5055602;28;20417;-68
2022/09/02 00:19:02;;;;;;;5.03;2.80;;;12.00;99.90;;;;;;5055258;28;20404;-68
2022/09/02 00:21:29;;;;;;;6.37;2.97;;;11.90;99.90;;;;;;5054897;28;20261;-67
2022/09/02 00:23:55;;;;;;;8.17;3.53;;;11.90;99.90;;;;;;5055240;28;20415;-68
2022/09/02 00:26:21;;;;;;;4.60;2.83;;;11.90;99.90;;;;;;5055286;28;20499;-68
2022/09/02 00:28:47;;;;;;;8.00;3.30;;;11.80;99.90;;;;;;5055430;28;20173;-68
2022/09/02 00:31:14;;;;;;;5.07;2.80;;;11.80;99.90;;;;;;5054857;28;20519;-68
2022/09/02 00:33:40;;;;;;;5.30;3.70;;;11.80;99.90;;;;;;5053760;28;21173;-67
2022/09/02 00:36:06;;;;;;;4.67;2.60;;;11.80;99.90;;;;;;5055167;28;20444;-68
2022/09/02 00:38:34;;;;;;;7.07;3.53;;;11.80;99.90;;;;;;5054022;28;20192;-68
2022/09/02 00:41:03;;;;;;;4.67;3.03;;;11.70;99.90;;;;;;5054787;28;20450;-68
2022/09/02 00:43:56;;;;;;;3.60;2.80;;;11.70;99.90;;;;;;5055361;28;20474;-68
2022/09/02 00:46:24;;;;;;;5.23;2.93;;;11.70;99.90;;;;;;5054836;28;20885;-68
2022/09/02 00:49:07;;;;;;;4.57;3.00;;;11.70;99.90;;;;;;5054906;28;20865;-67
2022/09/02 00:51:47;;;;;;;4.37;2.90;;;11.60;99.90;;;;;;5054416;28;20472;-68
2022/09/02 00:54:15;;;;;;;5.13;2.63;;;11.60;99.90;;;;;;5054909;28;20936;-68
2022/09/02 00:56:43;;;;;;;2.80;2.00;;;11.60;99.90;;;;;;5054813;28;20912;-67
2022/09/02 00:59:16;;;;;;;5.80;3.13;;;11.50;99.90;;;;;;5054572;28;20500;-68
2022/09/02 01:01:42;;;;;;;9.83;3.23;;;11.50;99.90;;;;;;5054187;28;20416;-67
2022/09/02 01:04:08;;;;;;;5.27;2.67;;;11.50;99.90;;;;;;5054654;28;20413;-68
2022/09/02 01:06:33;;;;;;;4.07;2.63;;;11.40;99.90;;;;;;5054500;28;20636;-67
2022/09/02 01:09:07;;;;;;;4.53;3.13;;;11.40;99.90;;;;;;5054625;28;20182;-67
2022/09/02 01:11:46;;;;;;;4.47;2.33;;;11.40;99.90;;;;;;5054022;28;20198;-67
2022/09/02 01:14:13;;;;;;;3.70;2.83;;;11.40;99.90;;;;;;5054649;28;20400;-68
2022/09/02 01:16:46;;;;;;;3.33;2.30;;;11.40;99.90;;;;;;5054487;28;20854;-68
2022/09/02 01:19:21;;;;;;;11.87;2.50;;;11.40;99.90;;;;;;5054551;28;20438;-68
2022/09/02 01:21:52;;;;;;;4.57;2.43;;;11.30;99.90;;;;;;5053935;28;20782;-68
2022/09/02 01:24:21;;;;;;;5.10;2.60;;;11.30;99.90;;;;;;5054506;28;20825;-68
2022/09/02 01:26:47;;;;;;;3.43;2.20;;;11.30;99.90;;;;;;5054239;28;20502;-68
2022/09/02 01:29:15;;;;;;;3.83;2.90;;;11.30;99.90;;;;;;5054215;28;20500;-68
2022/09/02 01:31:40;;;;;;;4.60;2.90;;;11.30;99.90;;;;;;5053652;28;20474;-68
2022/09/02 01:34:06;;;;;;;4.93;1.80;;;11.20;99.90;;;;;;5052703;28;20790;-68
2022/09/02 01:36:36;;;;;;;5.53;2.97;;;11.20;99.90;;;;;;5053916;28;20178;-68
2022/09/02 01:39:01;;;;;;;4.57;2.60;;;11.10;99.90;;;;;;5053918;28;20170;-68
2022/09/02 01:41:27;;;;;;;4.10;2.40;;;11.00;99.90;;;;;;5053532;28;20423;-68
2022/09/02 01:43:53;;;;;;;5.60;2.93;;;10.90;99.90;;;;;;5054038;28;20181;-68
2022/09/02 01:46:19;;;;;;;3.67;2.00;;;11.00;99.90;;;;;;5053798;28;20647;-68
2022/09/02 01:48:45;;;;;;;4.60;2.50;;;11.00;99.90;;;;;;5053313;28;20182;-68
2022/09/02 01:51:16;;;;;;;8.23;2.67;;;11.00;99.90;;;;;;5037483;28;20221;-67
2022/09/02 01:53:42;;;;;;;2.93;2.20;;;10.90;99.90;;;;;;5033763;28;20178;-68
2022/09/02 01:56:07;;;;;;;4.37;2.13;;;10.90;99.90;;;;;;5033882;28;20416;-68
2022/09/02 01:58:33;;;;;;;3.57;2.27;;;10.90;99.90;;;;;;5053703;28;20178;-67
2022/09/02 02:00:59;;;;;;;3.63;2.37;;;10.90;99.90;;;;;;5053245;28;20178;-68
2022/09/02 02:03:24;;;;;;;5.27;2.60;;;10.90;99.90;;;;;;5053448;28;20189;-68
2022/09/02 02:05:50;;;;;;;3.90;2.37;;;10.80;99.90;;;;;;5053622;28;20185;-68
2022/09/02 02:08:16;;;;;;;4.73;2.40;;;10.80;99.90;;;;;;5053557;28;20239;-68
2022/09/02 02:10:42;;;;;;;5.07;2.53;;;10.70;99.90;;;;;;5053748;28;20487;-68
2022/09/02 02:13:08;;;;;;;8.03;3.67;;;10.70;99.90;;;;;;5052789;28;20650;-68
2022/09/02 02:15:37;;;;;;;3.73;2.57;;;10.70;99.90;;;;;;5053287;28;20412;-68
2022/09/02 02:18:03;;;;;;;4.43;3.10;;;10.70;99.90;;;;;;5053403;28;20166;-68
2022/09/02 02:20:29;;;;;;;7.30;3.00;;;10.70;99.90;;;;;;5053388;28;20408;-69
2022/09/02 02:22:54;;;;;;;3.93;2.50;;;10.70;99.90;;;;;;5052688;28;20185;-68
2022/09/02 02:25:20;;;;;;;4.80;2.50;;;10.70;99.90;;;;;;5053139;28;20568;-68
2022/09/02 02:27:46;;;;;;;3.70;2.63;;;10.70;99.90;;;;;;5053109;28;20173;-68
2022/09/02 02:30:15;;;;;;;5.30;3.07;;;10.60;99.90;;;;;;5052896;28;20648;-68
2022/09/02 02:32:41;;;;;;;6.50;2.60;;;10.60;99.90;;;;;;5051298;28;20213;-68
2022/09/02 02:35:08;;;;;;;7.33;3.27;;;10.60;99.90;;;;;;5052864;28;20828;-68
2022/09/02 02:37:33;;;;;;;4.17;2.60;;;10.50;99.90;;;;;;5052845;28;20442;-68
2022/09/02 02:39:59;;;;;;;5.10;2.50;;;10.50;99.90;;;;;;5052828;28;20455;-68
2022/09/02 02:42:25;;;;;;;8.47;3.57;;;10.50;99.90;;;;;;5052229;28;20201;-68
2022/09/02 02:44:51;;;;;;;25.70;3.67;;;10.50;99.90;;;;;;5052825;28;20170;-68
2022/09/02 02:47:17;;;;;;;5.27;2.73;;;10.50;99.90;;;;;;5052663;28;20181;-68
2022/09/02 02:49:43;;;;;;;5.87;3.50;;;10.50;99.90;;;;;;5052640;28;20173;-68
2022/09/02 02:52:10;;;;;;;4.67;2.63;;;10.50;99.90;;;;;;5052195;28;20452;-68
2022/09/02 02:54:37;;;;;;;6.17;3.53;;;10.50;99.90;;;;;;5052678;28;20405;-68
2022/09/02 02:57:04;;;;;;;11.20;3.83;;;10.50;99.90;;;;;;5052300;28;20436;-68
2022/09/02 02:59:30;;;;;;;6.37;3.80;;;10.50;99.90;;;;;;5052635;28;20861;-68
2022/09/02 03:01:57;;;;;;;6.40;3.37;;;10.60;99.90;;;;;;5051594;28;20412;-68
2022/09/02 03:04:23;;;;;;;5.70;3.23;;;10.60;99.90;;;;;;5051598;28;20412;-68
2022/09/02 03:06:50;;;;;;;7.83;3.57;;;10.60;99.90;;;;;;5051544;28;20423;-68
2022/09/02 03:09:16;;;;;;;5.93;3.37;;;10.60;99.90;;;;;;5051501;28;20418;-68
2022/09/02 03:11:42;;;;;;;7.50;2.90;;;10.50;99.90;;;;;;5051108;28;20456;-68
2022/09/02 03:14:07;;;;;;;10.13;3.30;;;10.50;99.90;;;;;;5051655;28;21109;-68
2022/09/02 03:16:35;;;;;;;4.73;3.23;;;10.40;99.90;;;;;;5051505;28;20626;-68
2022/09/02 03:19:01;;;;;;;5.70;3.47;;;10.40;99.90;;;;;;5052130;28;20205;-67
2022/09/02 03:21:27;;;;;;;3.83;2.73;;;10.40;99.90;;;;;;5050616;28;20466;-67
2022/09/02 03:23:53;;;;;;;6.47;2.60;;;10.40;99.90;;;;;;5051833;28;20404;-67
2022/09/02 03:26:22;;;;;;;5.17;2.57;;;10.40;99.90;;;;;;5051593;28;20181;-67
2022/09/02 03:28:49;;;;;;;6.80;2.30;;;10.30;99.90;;;;;;5052300;28;20679;-67
2022/09/02 03:31:21;;;;;;;3.87;2.40;;;10.30;99.90;;;;;;5051706;28;20451;-67
2022/09/02 03:33:47;;;;;;;5.97;3.03;;;10.30;99.90;;;;;;5051384;28;20822;-67
2022/09/02 03:36:34;;;;;;;4.03;2.73;;;10.30;99.90;;;;;;5051975;28;20401;-67
2022/09/02 03:39:00;;;;;;;5.03;2.90;;;10.20;99.90;;;;;;5052332;28;20172;-67
2022/09/02 03:41:26;;;;;;;6.13;2.90;;;10.20;99.90;;;;;;5051968;28;20768;-68
2022/09/02 03:43:52;;;;;;;7.77;3.63;;;10.20;99.90;;;;;;5052448;28;20408;-67
2022/09/02 03:46:18;;;;;;;4.30;2.53;;;10.20;99.90;;;;;;5051990;28;20572;-67
2022/09/02 03:48:44;;;;;;;7.73;3.23;;;10.20;99.90;;;;;;5051936;28;21018;-67
2022/09/02 03:51:10;;;;;;;4.67;2.77;;;10.20;99.90;;;;;;5051636;28;20525;-68
2022/09/02 03:53:35;;;;;;;4.73;2.83;;;10.10;99.90;;;;;;5051926;28;20205;-67
2022/09/02 03:56:06;;;;;;;5.17;2.90;;;10.20;99.90;;;;;;5051900;28;20235;-67
2022/09/02 03:58:32;;;;;;;5.23;2.67;;;10.20;99.90;;;;;;5052073;28;20181;-67
2022/09/02 04:00:58;;;;;;;6.33;3.60;;;10.20;99.90;;;;;;5051343;28;20416;-67
2022/09/02 04:03:24;;;;;;;5.47;3.37;;;10.20;99.90;;;;;;5051742;28;20416;-67
2022/09/02 04:05:51;;;;;;;4.30;2.93;;;10.10;99.90;;;;;;5051727;28;20180;-67
2022/09/02 04:08:17;;;;;;;4.33;3.17;;;10.10;99.90;;;;;;5051882;28;20748;-67
2022/09/02 04:10:43;;;;;;;4.77;3.20;;;10.10;99.90;;;;;;5051655;28;20779;-67
2022/09/02 04:13:10;;;;;;;10.00;3.97;;;10.10;99.90;;;;;;5051391;28;20963;-67
2022/09/02 04:15:41;;;;;;;5.73;3.47;;;10.10;99.90;;;;;;5051695;28;20224;-67
2022/09/02 04:21:33;;;;;;;7.00;3.53;;;10.00;99.90;;;;;;5051154;28;20491;-67
2022/09/02 04:23:58;;;;;;;6.10;3.87;;;10.00;99.90;;;;;;5051564;28;20750;-67
2022/09/02 04:26:24;;;;;;;6.87;3.40;;;10.00;99.90;;;;;;5051410;28;20420;-67
2022/09/02 04:28:52;;;;;;;7.23;3.10;;;10.00;99.90;;;;;;5051906;28;20669;-67
2022/09/02 04:31:20;;;;;;;7.37;3.77;;;10.00;99.90;;;;;;5051034;28;20181;-67
2022/09/02 04:33:46;;;;;;;5.57;3.53;;;10.00;99.90;;;;;;5050612;28;20432;-67
2022/09/02 04:36:14;;;;;;;5.80;3.43;;;9.90;99.90;;;;;;5052142;28;20415;-68
2022/09/02 04:38:40;;;;;;;5.13;3.00;;;10.00;99.90;;;;;;5055023;28;20201;-68
2022/09/02 04:41:08;;;;;;;5.60;3.37;;;9.90;99.90;;;;;;5054527;28;20892;-68
2022/09/02 04:43:33;;;;;;;5.63;3.37;;;9.90;99.90;;;;;;5055103;28;20254;-68
2022/09/02 04:46:00;;;;;;;4.80;3.33;;;9.90;99.90;;;;;;5055000;28;20834;-68
2022/09/02 04:48:26;;;;;;;8.13;3.10;;;9.90;99.90;;;;;;5054871;28;20650;-68
2022/09/02 04:50:52;;;;;;;3.53;2.40;;;9.90;99.90;;;;;;5054647;28;20439;-68
2022/09/02 04:53:17;;;;;;;4.10;2.50;;;9.90;99.90;;;;;;5054507;28;20209;-68
2022/09/02 04:55:43;;;;;;;10.47;3.03;;;10.00;99.90;;;;;;5054814;28;20173;-68
2022/09/02 04:58:09;;;;;;;6.93;3.70;;;9.90;99.90;;;;;;5054657;28;20178;-68
2022/09/02 05:00:39;;;;;;;4.80;3.20;;;9.90;99.90;;;;;;5054865;28;20174;-67
2022/09/02 05:03:05;;;;;;;6.30;2.83;;;9.80;99.90;;;;;;5053851;28;20408;-68
2022/09/02 05:05:32;;;;;;;4.30;2.63;;;9.90;99.90;;;;;;5053529;28;20514;-68
2022/09/02 05:07:57;;;;;;;3.80;2.87;;;9.90;99.90;;;;;;5054683;28;20420;-68
2022/09/02 05:10:23;;;;;;;4.57;2.43;;;9.90;99.90;;;;;;5054711;28;20424;-68
2022/09/02 05:12:49;;;;;;;5.67;2.50;;;9.80;99.90;;;;;;5053939;28;20197;-69
2022/09/02 05:15:15;;;;;;;7.37;3.00;;;9.90;99.90;;;;;;5054892;28;20212;-68
2022/09/02 05:17:41;;;;;;;5.80;2.50;;;9.90;99.90;;;;;;5054535;28;20170;-68
2022/09/02 05:20:08;;;;;;;3.97;2.47;;;9.90;99.90;;;;;;5054567;28;20439;-68
2022/09/02 05:22:35;;;;;;;12.73;2.80;;;9.90;99.90;;;;;;5053912;28;20408;-68
2022/09/02 05:25:02;;;;;;;4.03;2.73;;;9.90;99.90;;;;;;5054358;28;20501;-68
2022/09/02 05:27:27;;;;;;;6.73;2.67;;;9.90;99.90;;;;;;5054064;28;20417;-68
2022/09/02 05:29:55;;;;;;;4.60;2.37;;;9.90;99.90;;;;;;5054398;28;20904;-67
2022/09/02 05:32:21;;;;;;;4.27;2.20;;;9.90;99.90;;;;;;5052748;28;20209;-67
2022/09/02 05:34:48;;;;;;;5.33;3.30;;;10.00;99.90;;;;;;5054088;28;20448;-67
2022/09/02 05:37:14;;;;;;;3.90;2.57;;;10.10;99.90;;;;;;5054012;28;21023;-67
2022/09/02 05:39:40;;;;;;;10.93;3.10;;;10.10;99.90;;;;;;5053916;28;20401;-67
2022/09/02 05:42:06;;;;;;;5.60;3.33;;;10.20;99.90;;;;;;5053338;28;20456;-67
2022/09/02 05:44:31;;;;;;;3.50;2.77;;;10.30;99.90;;;;;;5053818;28;20189;-67
2022/09/02 05:46:57;;;;;;;7.60;3.67;;;10.40;99.90;;;;;;5053747;28;20262;-67
2022/09/02 05:49:22;;;;;;;6.93;3.30;;;10.50;99.90;;;;;;5052934;28;20169;-67
2022/09/02 05:51:55;;;;;;;5.20;3.40;;;10.60;99.90;;;;;;5053064;28;20194;-67
2022/09/02 05:54:33;;;;;;;4.50;2.70;;;10.80;99.90;;;;;;5053831;28;20178;-67
2022/09/02 05:57:03;;;;;;;4.93;2.73;;;10.90;99.90;;;;;;5053243;28;20868;-67
2022/09/02 05:59:30;;;;;;;8.40;3.07;;;11.00;99.90;;;;;;5053653;28;20423;-67
2022/09/02 06:01:57;;;;;;;7.60;3.50;;;11.10;99.90;;;;;;5052922;28;20445;-67
2022/09/02 06:04:24;;;;;;;6.33;3.30;;;11.20;99.90;;;;;;5053499;28;20449;-68
2022/09/02 06:06:51;;;;;;;4.70;2.57;;;11.30;99.90;;;;;;5053313;28;20440;-67
2022/09/02 06:09:20;;;;;;;5.20;3.10;;;11.40;99.90;;;;;;5053372;28;20454;-67
2022/09/02 06:11:48;;;;;;;4.10;2.93;;;11.50;99.90;;;;;;5052797;28;20209;-67
2022/09/02 06:14:23;;;;;;;4.77;2.63;;;11.70;99.90;;;;;;5053087;28;20416;-68
2022/09/02 06:16:51;;;;;;;4.70;2.97;;;11.70;99.90;;;;;;5053215;28;20769;-67
2022/09/02 06:19:17;;;;;;;6.57;2.83;;;11.80;99.90;;;;;;5053127;28;20427;-68
2022/09/02 06:21:43;;;;;;;3.87;2.47;;;12.00;99.90;;;;;;5052599;28;20772;-68
2022/09/02 06:24:10;;;;;;;3.80;2.37;;;12.00;99.90;;;;;;5052958;28;20419;-66
2022/09/02 06:26:37;;;;;;;4.73;2.40;;;12.10;99.90;;;;;;5052961;28;20181;-67
2022/09/02 06:29:04;;;;;;;6.50;2.93;;;12.30;99.90;;;;;;5039796;28;20421;-67
2022/09/02 06:31:31;;;;;;;4.20;2.70;;;12.40;99.90;;;;;;5020832;28;20708;-67
2022/09/02 06:33:57;;;;;;;4.00;2.50;;;12.60;99.90;;;;;;5013138;28;20473;-67
2022/09/02 06:36:25;;;;;;;3.07;2.47;;;12.70;99.90;;;;;;5013210;28;20414;-67
2022/09/02 06:38:53;;;;;;;5.37;2.37;;;12.80;99.90;;;;;;5013318;28;20422;-68
2022/09/02 06:41:23;;;;;;;4.33;2.43;;;12.90;99.90;;;;;;5012755;28;20414;-68
2022/09/02 06:43:49;;;;;;;5.87;3.10;;;13.10;99.90;;;;;;5015561;28;20442;-68
2022/09/02 06:46:18;;;;;;;4.23;2.93;;;13.20;99.90;;;;;;5022604;28;20434;-67
2022/09/02 06:48:44;;;;;;;3.43;2.27;;;13.30;99.90;;;;;;5032273;28;20425;-67
2022/09/02 06:51:19;;;;;;;8.53;2.90;;;13.50;99.90;;;;;;5022324;28;20426;-67
2022/09/02 06:53:45;;;;;;;14.43;3.40;;;13.60;99.90;;;;;;5022383;28;20516;-67
2022/09/02 06:56:11;;;;;;;4.17;1.93;;;13.80;99.90;;;;;;5026227;28;20492;-67
2022/09/02 06:58:37;;;;;;;3.53;1.83;;;14.00;99.90;;;;;;5052147;28;20185;-67
2022/09/02 07:01:02;;;;;;;6.30;2.70;;;14.20;99.90;;;;;;5051882;28;20177;-68
2022/09/02 07:06:12;;;;;;;4.73;2.00;;;14.40;99.90;;;;;;5051859;28;20523;-68
2022/09/02 07:08:40;;;;;;;3.83;2.37;;;14.60;99.90;;;;;;5039131;28;20909;-68
2022/09/02 07:11:13;;;;;;;7.87;1.93;;;14.80;99.90;;;;;;5031576;28;20224;-68
2022/09/02 07:13:39;;;;;;;12.00;3.10;;;15.30;99.90;;;;;;5030226;28;20457;-67
2022/09/02 07:16:06;;;;;;;2.70;1.80;;;15.80;99.90;;;;;;5031582;28;20416;-68
2022/09/02 07:18:33;;;;;;;2.80;1.83;;;16.20;99.90;;;;;;5032264;28;20170;-68
2022/09/02 07:20:58;;;;;;;4.60;1.93;;;16.50;99.90;;;;;;5031914;28;20421;-68
2022/09/02 07:23:24;;;;;;;3.23;1.73;;;16.60;99.90;;;;;;5032295;28;20410;-68
2022/09/02 07:25:50;;;;;;;3.50;1.73;;;17.20;99.90;;;;;;5032137;28;20319;-68
2022/09/02 07:28:16;;;;;;;3.70;1.90;;;17.90;99.90;;;;;;5031881;28;20202;-68
2022/09/02 07:30:42;;;;;;;6.37;2.03;;;19.20;98.70;;;;;;5031911;28;20174;-68
2022/09/02 07:33:12;;;;;;;2.57;1.40;;;19.80;96.70;;;;;;5030915;28;20213;-68
2022/09/02 07:35:40;;;;;;;3.30;1.60;;;21.10;94.00;;;;;;5032208;28;20443;-69
2022/09/02 07:38:07;;;;;;;2.60;1.53;;;21.50;92.80;;;;;;5031552;28;20584;-68
2022/09/02 07:40:35;;;;;;;2.73;1.40;;;21.80;91.10;;;;;;5030330;28;20422;-69
2022/09/02 07:43:05;;;;;;;3.37;1.57;;;21.90;91.20;;;;;;5025152;28;20445;-69
2022/09/02 07:45:31;;;;;;;2.77;1.67;;;22.70;87.80;;;;;;5030076;28;20467;-68
2022/09/02 07:47:58;;;;;;;2.43;1.43;;;22.30;90.00;;;;;;5022262;28;20839;-69
2022/09/02 07:50:26;;;;;;;2.77;1.40;;;22.10;89.40;;;;;;5022060;28;20501;-69
2022/09/02 07:52:56;;;;;;;2.40;1.30;;;22.00;90.60;;;;;;5021356;28;20457;-69
2022/09/02 07:55:23;;;;;;;2.70;1.20;;;22.50;88.70;;;;;;5023762;28;20445;-69
2022/09/02 07:57:49;;;;;;;2.77;1.30;;;22.60;88.90;;;;;;5028691;28;20440;-69
2022/09/02 08:00:18;;;;;;;2.77;1.27;;;22.80;87.90;;;;;;5024709;28;20463;-69
2022/09/02 08:02:44;;;;;;;7.00;1.43;;;22.70;87.80;;;;;;5029868;28;20423;-69
2022/09/02 08:05:11;;;;;;;4.33;1.87;;;22.70;88.10;;;;;;5022895;28;20461;-69
2022/09/02 08:07:37;;;;;;;3.13;1.43;;;22.90;87.10;;;;;;5021678;28;20421;-69
2022/09/02 08:10:06;;;;;;;2.63;1.57;;;23.00;86.40;;;;;;5025328;28;20427;-69
2022/09/02 08:12:31;;;;;;;6.30;2.10;;;22.40;88.30;;;;;;5033131;28;20252;-69
2022/09/02 08:14:57;;;;;;;3.00;1.43;;;23.10;87.00;;;;;;5026019;28;20535;-69
2022/09/02 08:17:23;;;;;;;4.87;2.47;;;23.80;83.90;;;;;;5032727;28;20177;-69
2022/09/02 08:19:49;;;;;;;2.90;1.53;;;23.50;83.80;;;;;;5025042;28;20178;-69
2022/09/02 08:22:15;;;;;;;4.60;1.10;;;23.20;84.60;;;;;;5027472;28;20469;-69
2022/09/02 08:24:40;;;;;;;5.93;1.92;;;23.10;84.30;;;;;;5027366;28;20405;-70
2022/09/02 08:27:06;;;;;;;3.50;1.47;;;23.40;84.60;;;;;;5025180;28;20998;-70
2022/09/02 08:29:32;;;;;;;3.00;1.50;;;23.30;85.10;;;;;;5024872;28;20170;-70
2022/09/02 08:31:58;;;;;;;5.70;1.30;;;24.10;82.90;;;;;;5026087;28;20557;-70
2022/09/02 08:34:23;;;;;;;2.43;1.30;;;24.40;81.10;;;;;;5026464;28;20425;-70
2022/09/02 08:36:49;;;;;;;2.27;1.20;;;23.90;82.20;;;;;;5026716;28;20231;-70
2022/09/02 08:39:14;;;;;;;2.70;1.33;;;23.40;83.60;;;;;;5024406;28;20187;-70
2022/09/02 08:41:43;;;;;;;3.30;1.00;;;24.20;80.70;;;;;;5023462;28;20324;-70
2022/09/02 08:44:11;;;;;;;3.97;1.50;;;24.20;79.70;;;;;;5029007;28;20201;-70
2022/09/02 08:46:37;;;;;;;3.60;1.30;;;24.40;79.70;;;;;;5030189;28;20182;-70
2022/09/02 08:49:10;;;;;;;2.30;1.30;;;24.50;78.70;;;;;;5029720;28;20908;-70
2022/09/02 08:51:56;;;;;;;9.77;2.00;;;24.50;78.60;;;;;;5027413;28;20965;-69
2022/09/02 08:54:31;;;;;;;5.00;1.43;;;24.50;78.10;;;;;;5026160;28;20468;-70
2022/09/02 08:56:57;;;;;;;2.30;1.20;;;24.30;78.70;;;;;;5032861;28;20420;-69
2022/09/02 08:59:26;;;;;;;3.67;1.43;;;24.20;79.10;;;;;;5025179;28;20616;-70
2022/09/02 09:01:57;;;;;;;3.00;1.10;;;24.20;78.90;;;;;;5026383;28;20788;-70
2022/09/02 09:04:42;;;;;;;4.70;1.57;;;24.10;79.30;;;;;;5023760;28;20508;-70
2022/09/02 09:07:17;;;;;;;2.87;1.20;;;24.00;78.70;;;;;;5023795;28;20418;-70
2022/09/02 09:10:06;;;;;;;2.30;1.30;;;23.90;78.80;;;;;;5032074;28;20408;-69
2022/09/02 09:13:11;;;;;;;2.93;1.23;;;23.80;79.10;;;;;;5024425;28;20543;-70
2022/09/02 09:16:03;;;;;;;5.10;1.27;;;23.70;79.40;;;;;;5023068;28;20459;-70
2022/09/02 09:18:38;;;;;;;2.33;1.07;;;23.20;80.30;;;;;;5026399;28;20406;-70
2022/09/02 09:21:05;;;;;;;3.40;1.40;;;23.30;82.10;;;;;;5031248;28;20420;-70
2022/09/02 09:23:37;;;;;;;2.63;1.17;;;23.60;80.60;;;;;;5026352;28;20417;-70
2022/09/02 09:26:15;;;;;;;3.70;1.03;;;23.60;79.00;;;;;;5025022;28;20654;-70
2022/09/02 09:28:43;;;;;;;3.37;1.00;;;23.70;77.60;;;;;;5031676;28;20255;-70
2022/09/02 09:31:18;;;;;;;3.10;1.33;;;23.70;78.90;;;;;;5023170;28;20181;-70
2022/09/02 09:34:06;;;;;;;1.90;0.70;;;23.60;78.40;;;;;;5028725;28;20466;-70
2022/09/02 09:36:41;;;;;;;2.70;1.23;;;23.90;77.20;;;;;;5023832;28;20175;-70
2022/09/02 09:39:30;;;;;;;4.13;1.13;;;23.90;75.80;;;;;;5028639;28;20186;-70
2022/09/02 09:41:57;;;;;;;1.80;0.90;;;22.90;76.90;;;;;;5022673;28;20198;-70
2022/09/02 09:44:29;;;;;;;3.20;1.20;;;22.20;78.40;;;;;;5031114;28;20207;-70
2022/09/02 09:47:03;;;;;;;2.73;1.10;;;22.30;80.50;;;;;;5032156;28;20416;-71
2022/09/02 09:49:30;;;;;;;1.70;1.00;;;22.20;79.30;;;;;;5032218;28;20424;-69
2022/09/02 09:51:56;;;;;;;1.80;0.90;;;22.20;80.00;;;;;;5029918;28;20461;-69
2022/09/02 09:54:25;;;;;;;2.63;1.37;;;22.60;78.90;;;;;;5018101;28;20422;-69
2022/09/02 09:56:52;;;;;;;1.93;0.90;;;22.50;78.90;;;;;;5033078;28;20253;-69
2022/09/02 09:59:48;;;;;;;2.37;1.20;;;22.20;80.20;;;;;;5013723;28;20520;-69
2022/09/02 10:02:23;;;;;;;3.83;1.23;;;21.90;80.10;;;;;;5015653;28;20424;-70
2022/09/02 10:04:50;;;;;;;1.60;0.70;;;22.00;80.10;;;;;;5032940;28;20854;-69
2022/09/02 10:07:37;;;;;;;1.70;0.83;;;22.00;79.30;;;;;;5026743;28;20485;-70
2022/09/02 10:10:18;;;;;;;1.60;0.80;;;22.00;81.20;;;;;;5021076;28;20806;-69
2022/09/02 10:12:45;;;;;;;2.73;0.90;;;22.00;79.00;;;;;;5015998;28;20560;-69
2022/09/02 10:15:11;;;;;;;6.10;0.90;;;22.00;77.30;;;;;;5024881;28;20448;-69
2022/09/02 10:17:57;;;;;;;4.70;1.07;;;21.80;78.40;;;;;;5032708;28;20421;-69
2022/09/02 10:20:49;;;;;;;1.63;0.93;;;21.90;77.70;;;;;;5033130;28;20170;-69
2022/09/02 10:23:26;;;;;;;2.10;0.87;;;21.80;77.60;;;;;;5029181;28;20452;-69
2022/09/02 10:26:25;;;;;;;5.33;1.10;;;21.80;77.30;;;;;;5031349;28;20902;-70
2022/09/02 10:28:59;;;;;;;2.57;0.80;;;21.80;75.00;;;;;;5010973;28;20440;-70
2022/09/02 10:31:28;;;;;;;2.60;1.00;;;21.90;77.80;;;;;;5020193;28;20417;-70
2022/09/02 10:34:12;;;;;;;4.73;1.10;;;22.00;77.40;;;;;;5030976;28;20447;-69
2022/09/02 10:36:55;;;;;;;2.23;1.00;;;21.80;76.00;;;;;;5021779;28;20422;-70
2022/09/02 10:39:24;;;;;;;1.80;0.90;;;22.00;76.60;;;;;;5019532;28;20563;-70
2022/09/02 10:41:54;;;;;;;2.07;0.97;;;22.00;74.10;;;;;;5031852;28;20406;-70
2022/09/02 10:44:44;;;;;;;1.70;0.80;;;22.10;75.50;;;;;;5032618;28;20897;-69
2022/09/02 10:47:23;;;;;;;5.60;1.73;;;22.30;75.90;;;;;;5032278;28;20686;-70
2022/09/02 10:49:58;;;;;;;2.70;0.87;;;22.40;74.70;;;;;;5032089;28;20409;-70
2022/09/02 10:52:29;;;;;;;1.93;1.03;;;22.20;75.40;;;;;;5023504;28;20453;-70
2022/09/02 10:55:03;;;;;;;1.60;0.67;;;22.10;75.00;;;;;;5028043;28;20432;-69
2022/09/02 10:57:38;;;;;;;2.73;1.27;;;22.10;74.40;;;;;;5035893;28;20447;-69
2022/09/02 11:00:21;;;;;;;1.77;0.80;;;22.30;73.70;;;;;;5032377;28;20881;-69
2022/09/02 11:02:59;;;;;;;1.83;1.00;;;22.40;74.20;;;;;;5028411;28;21006;-69
2022/09/02 11:05:33;;;;;;;2.40;1.00;;;22.30;75.00;;;;;;5032187;28;20507;-69
2022/09/02 11:08:09;;;;;;;2.23;1.20;;;22.20;73.70;;;;;;5032376;28;20419;-70
2022/09/02 11:10:44;;;;;;;3.10;1.10;;;22.30;73.40;;;;;;5032492;28;20401;-70
2022/09/02 11:13:33;;;;;;;3.33;1.10;;;22.50;72.70;;;;;;5030085;28;20498;-70
2022/09/02 11:16:23;;;;;;;1.60;0.70;;;22.70;71.80;;;;;;5032482;28;20420;-69
2022/09/02 11:19:27;;;;;;;1.57;0.67;;;22.70;72.10;;;;;;4999045;28;20428;-69
2022/09/02 11:22:20;;;;;;;14.97;1.17;;;22.70;74.30;;;;;;5022359;28;20421;-69
2022/09/02 11:24:50;;;;;;;2.00;0.93;;;22.50;73.30;;;;;;5026119;28;20410;-69
2022/09/02 11:27:45;;;;;;;1.60;0.80;;;22.40;73.60;;;;;;5025045;28;20421;-72
2022/09/02 11:30:12;;;;;;;2.67;0.90;;;22.80;72.00;;;;;;5025672;28;20777;-69
2022/09/02 11:33:13;;;;;;;1.87;0.90;;;22.60;71.60;;;;;;5030182;28;20471;-69
2022/09/02 11:35:41;;;;;;;1.60;0.80;;;22.80;71.30;;;;;;5031522;28;20409;-71
2022/09/02 11:38:28;;;;;;;2.40;0.77;;;22.60;71.80;;;;;;5025553;28;20511;-69
2022/09/02 11:41:30;;;;;;;2.03;1.00;;;22.80;72.70;;;;;;5031728;28;20502;-69
2022/09/02 11:44:02;;;;;;;2.13;1.00;;;23.10;72.30;;;;;;5030970;28;20456;-69
2022/09/02 11:46:45;;;;;;;2.00;0.80;;;23.20;71.30;;;;;;5033226;28;20427;-68
2022/09/02 11:49:11;;;;;;;1.70;0.80;;;23.30;70.10;;;;;;5035901;28;20424;-69
2022/09/02 11:54:15;;;;;;;2.77;1.37;;;23.40;70.90;;;;;;5032023;23;20245;-68
2022/09/02 11:56:44;;;;;;;4.27;1.00;;;23.60;70.40;;;;;;5016150;28;20533;-70
2022/09/02 11:59:51;;;;;;;3.10;0.80;;;23.70;69.80;;;;;;5015263;28;20428;-70
2022/09/02 12:02:38;;;;;;;1.70;0.73;;;23.60;70.50;;;;;;5015026;28;20513;-69
2022/09/02 12:05:31;;;;;;;3.57;1.10;;;23.60;71.50;;;;;;5015783;28;20456;-69
2022/09/02 12:07:58;;;;;;;1.90;0.90;;;23.70;69.90;;;;;;5012154;28;20547;-70
2022/09/02 12:10:42;;;;;;;1.70;0.90;;;23.80;69.50;;;;;;5015841;28;20425;-69
2022/09/02 12:13:44;;;;;;;2.03;0.90;;;23.90;69.60;;;;;;5014802;28;20457;-70
2022/09/02 12:16:18;;;;;;;2.47;1.10;;;23.80;69.20;;;;;;5015586;28;20412;-69
2022/09/02 12:19:07;;;;;;;2.43;1.10;;;23.80;69.00;;;;;;5015528;28;20539;-70
2022/09/02 12:21:34;;;;;;;2.70;0.87;;;23.70;71.60;;;;;;5014507;28;21006;-71
2022/09/02 12:23:59;;;;;;;2.70;0.87;;;23.90;69.40;;;;;;5015386;28;20421;-71
2022/09/02 12:26:49;;;;;;;2.83;0.90;;;24.00;71.50;;;;;;5015650;28;20418;-69
2022/09/02 12:29:18;;;;;;;4.13;1.03;;;23.90;69.00;;;;;;5015280;28;20245;-70
2022/09/02 12:31:45;;;;;;;1.73;0.87;;;24.10;69.90;;;;;;5015039;28;20467;-70
2022/09/02 12:34:20;;;;;;;2.17;0.97;;;24.30;69.50;;;;;;5009843;28;20509;-69
2022/09/02 12:36:47;;;;;;;1.80;1.10;;;24.50;68.70;;;;;;5008325;28;20452;-69
2022/09/02 12:39:22;;;;;;;2.23;0.90;;;23.90;70.80;;;;;;5015410;28;20416;-69
2022/09/02 12:42:11;;;;;;;2.33;0.83;;;24.00;71.30;;;;;;5015028;28;20420;-69
2022/09/02 12:45:01;;;;;;;2.07;1.03;;;24.10;69.10;;;;;;5012362;28;20918;-69
2022/09/02 12:47:52;;;;;;;2.40;1.07;;;24.30;68.90;;;;;;5015243;28;20428;-69
2022/09/02 12:50:32;;;;;;;3.10;1.10;;;24.40;68.50;;;;;;5015102;28;20448;-69
2022/09/02 12:53:28;;;;;;;1.60;0.80;;;24.70;68.60;;;;;;5014253;28;20576;-69
2022/09/02 12:56:15;;;;;;;1.70;0.90;;;24.60;68.60;;;;;;5015334;28;20417;-69
2022/09/02 12:58:45;;;;;;;2.03;0.93;;;24.60;67.30;;;;;;5014255;28;20433;-69
2022/09/02 13:01:45;;;;;;;2.00;0.97;;;24.40;69.80;;;;;;5014399;28;20749;-68
2022/09/02 13:04:39;;;;;;;3.17;1.20;;;24.20;69.10;;;;;;5014965;28;20781;-69
2022/09/02 13:07:46;;;;;;;2.00;0.90;;;24.40;68.90;;;;;;5003964;28;20612;-69
2022/09/02 13:10:17;;;;;;;2.60;1.10;;;24.00;70.60;;;;;;5014825;28;20429;-69
2022/09/02 13:12:56;;;;;;;3.13;1.43;;;24.20;70.10;;;;;;5008068;28;20457;-70
2022/09/02 13:15:46;;;;;;;2.00;1.20;;;24.60;70.00;;;;;;5014711;28;20973;-69
2022/09/02 13:18:26;;;;;;;2.80;1.00;;;24.70;70.90;;;;;;5014608;28;20409;-69